Time;durP1;ratioP1;P1;durP2;ratioP2;P2;SDS_P1;SDS_P2;PMS_P1;PMS_P2;Temp;Humidity;BMP_temperature;BMP_pressure;BME280_temperature;BME280_humidity;BME280_pressure;Samples;Min_cycle;Max_cycle;Signal;HPM_P1;HPM_P2
2020/12/08 00:00:09;;;;;;;16.92;12.23;;;;;;;5.76;79.48;99851.09;5319989;26;20061;-80
2020/12/08 00:02:35;;;;;;;18.08;13.85;;;;;;;5.62;79.87;99843.25;5320445;26;20057;-83
2020/12/08 00:05:04;;;;;;;22.02;14.65;;;;;;;5.41;81.35;99837.88;5319891;26;20149;-81
2020/12/08 00:07:32;;;;;;;20.33;14.32;;;;;;;5.83;79.59;99847.69;5318709;27;20061;-82
2020/12/08 00:09:59;;;;;;;16.80;12.85;;;;;;;5.99;79.00;99834.75;5318283;27;20072;-81
2020/12/08 00:12:27;;;;;;;17.33;13.95;;;;;;;5.69;79.74;99842.41;5318450;27;20083;-83
2020/12/08 00:14:54;;;;;;;17.00;13.35;;;;;;;6.03;78.14;99839.09;5318135;27;20061;-83
2020/12/08 00:17:21;;;;;;;19.40;13.18;;;;;;;6.11;77.55;99829.56;5318614;27;20075;-83
2020/12/08 00:19:48;;;;;;;19.12;12.88;;;;;;;6.17;78.00;99829.56;5320034;26;20060;-81
2020/12/08 00:22:15;;;;;;;21.73;14.05;;;;;;;5.72;79.51;99828.50;5318509;27;20075;-83
2020/12/08 00:24:42;;;;;;;20.17;13.90;;;;;;;5.24;81.92;99820.44;5318434;27;20096;-82
2020/12/08 00:27:10;;;;;;;18.87;12.88;;;;;;;5.52;80.76;99838.81;5318635;27;20052;-83
2020/12/08 00:29:37;;;;;;;20.02;13.38;;;;;;;5.50;80.68;99837.06;5318163;27;20186;-84
2020/12/08 00:32:11;;;;;;;22.98;14.32;;;;;;;5.30;81.71;99839.56;5317956;27;20080;-81
2020/12/08 00:34:38;;;;;;;18.95;13.65;;;;;;;5.60;80.66;99838.88;5318410;27;20069;-82
2020/12/08 00:37:05;;;;;;;20.73;14.13;;;;;;;5.70;79.97;99845.88;5318379;27;20084;-83
2020/12/08 00:39:32;;;;;;;19.70;14.10;;;;;;;5.92;78.78;99857.28;5318125;27;20442;-82
2020/12/08 00:41:59;;;;;;;20.55;13.82;;;;;;;5.61;80.09;99853.66;5318413;27;20075;-81
2020/12/08 00:44:26;;;;;;;22.58;14.13;;;;;;;5.66;79.58;99858.03;5318185;27;20081;-82
2020/12/08 00:46:52;;;;;;;21.95;15.07;;;;;;;5.36;80.59;99869.13;5318549;27;20101;-84
2020/12/08 00:49:19;;;;;;;22.13;14.68;;;;;;;5.33;81.48;99868.25;5318302;27;20066;-81
2020/12/08 00:51:45;;;;;;;22.40;15.32;;;;;;;5.40;80.64;99867.41;5317823;27;20473;-82
2020/12/08 00:54:12;;;;;;;19.77;15.20;;;;;;;6.02;78.43;99874.72;5318395;27;20415;-82
2020/12/08 00:56:40;;;;;;;20.77;14.55;;;;;;;5.31;80.66;99867.34;5318369;27;20071;-83
2020/12/08 00:59:06;;;;;;;22.35;16.65;;;;;;;5.20;81.49;99859.47;5318716;27;20400;-82
2020/12/08 01:01:33;;;;;;;19.95;14.38;;;;;;;5.07;81.85;99848.09;5318435;27;20065;-82
2020/12/08 01:03:59;;;;;;;22.13;14.90;;;;;;;5.47;80.60;99838.81;5318204;27;20140;-82
2020/12/08 01:06:26;;;;;;;23.87;16.37;;;;;;;5.23;81.31;99831.72;5318098;27;20128;-82
2020/12/08 01:08:52;;;;;;;21.23;14.68;;;;;;;5.43;80.68;99838.78;5318371;27;20116;-83
2020/12/08 01:11:19;;;;;;;20.05;14.63;;;;;;;5.43;80.10;99859.62;5318270;27;20064;-81
2020/12/08 01:13:46;;;;;;;22.30;14.45;;;;;;;5.62;79.83;99856.28;5318284;27;20115;-82
2020/12/08 01:16:14;;;;;;;21.90;15.32;;;;;;;5.15;81.92;99846.41;5318279;27;20656;-82
2020/12/08 01:18:43;;;;;;;21.77;15.80;;;;;;;5.88;79.23;99850.28;5319788;26;20076;-83
2020/12/08 01:21:09;;;;;;;20.33;14.52;;;;;;;5.85;78.75;99852.88;5317989;27;20096;-83
2020/12/08 01:23:35;;;;;;;20.90;14.85;;;;;;;5.88;78.20;99838.16;5318528;27;20393;-82
2020/12/08 01:26:02;;;;;;;21.77;14.40;;;;;;;5.03;81.85;99840.22;5318211;27;20112;-82
2020/12/08 01:28:29;;;;;;;24.67;15.60;;;;;;;5.74;79.39;99839.81;5318187;27;20067;-83
2020/12/08 01:30:55;;;;;;;23.17;14.93;;;;;;;5.33;80.69;99845.66;5319649;27;20066;-82
2020/12/08 01:33:22;;;;;;;23.23;14.75;;;;;;;6.12;77.74;99845.22;5318209;27;20064;-79
2020/12/08 01:35:51;;;;;;;21.37;16.30;;;;;;;6.04;77.32;99835.63;5317817;27;20052;-81
2020/12/08 01:38:18;;;;;;;22.00;14.93;;;;;;;5.96;78.48;99838.19;5318057;27;20048;-79
2020/12/08 01:40:52;;;;;;;22.52;16.48;;;;;;;5.86;77.70;99828.59;5317821;27;20064;-79
2020/12/08 01:43:18;;;;;;;26.40;15.20;;;;;;;5.87;78.59;99831.19;5319297;26;20080;-80
2020/12/08 01:45:45;;;;;;;19.30;13.90;;;;;;;6.11;77.36;99848.69;5318021;27;20057;-83
2020/12/08 01:48:17;;;;;;;20.00;14.15;;;;;;;5.91;77.30;99839.88;5318417;27;20059;-82
2020/12/08 01:50:44;;;;;;;19.95;13.77;;;;;;;5.60;78.59;99834.53;5318060;27;20419;-83
2020/12/08 01:53:12;;;;;;;23.20;16.02;;;;;;;5.61;78.79;99830.19;5318390;27;20064;-83
2020/12/08 01:55:43;;;;;;;24.17;15.43;;;;;;;5.30;80.21;99829.16;5318237;27;20053;-82
2020/12/08 01:58:20;;;;;;;23.58;16.27;;;;;;;5.52;79.09;99830.16;5318310;27;20057;-82
2020/12/08 02:00:48;;;;;;;20.90;14.90;;;;;;;5.47;79.38;99831.00;5318130;27;20067;-82
2020/12/08 02:03:18;;;;;;;24.87;15.48;;;;;;;5.51;79.17;99828.41;5318187;27;20092;-82
2020/12/08 02:05:45;;;;;;;24.63;16.27;;;;;;;5.49;79.27;99831.00;5318090;27;20057;-82
2020/12/08 02:08:12;;;;;;;24.30;16.05;;;;;;;5.59;78.96;99830.19;5317910;27;20048;-82
2020/12/08 02:10:40;;;;;;;25.90;17.15;;;;;;;5.64;78.74;99836.28;5318120;27;20124;-80
2020/12/08 02:13:10;;;;;;;23.10;15.20;;;;;;;5.90;77.67;99832.94;5317770;27;20068;-79
2020/12/08 02:15:37;;;;;;;27.52;17.58;;;;;;;5.14;80.43;99833.37;5318047;27;20361;-79
2020/12/08 02:18:04;;;;;;;22.65;15.75;;;;;;;5.37;80.55;99831.78;5317820;27;20067;-81
2020/12/08 02:20:30;;;;;;;24.80;16.50;;;;;;;5.59;79.18;99834.50;5317855;27;20069;-79
2020/12/08 02:22:58;;;;;;;24.63;16.27;;;;;;;5.56;79.10;99831.88;5317874;27;20491;-79
2020/12/08 02:25:25;;;;;;;23.98;16.92;;;;;;;5.88;77.55;99832.94;5318176;27;20056;-81
2020/12/08 02:27:51;;;;;;;25.42;15.93;;;;;;;5.64;78.66;99836.28;5317967;27;20110;-80
2020/12/08 02:30:18;;;;;;;25.88;16.67;;;;;;;5.54;79.06;99839.72;5317719;27;20494;-82
2020/12/08 02:32:44;;;;;;;25.15;17.65;;;;;;;5.65;78.41;99837.19;5317803;27;20125;-84
2020/12/08 02:35:11;;;;;;;29.20;17.62;;;;;;;5.59;79.11;99838.00;5318883;27;20689;-82
2020/12/08 02:37:42;;;;;;;27.33;17.60;;;;;;;5.35;79.85;99833.50;5318255;27;20108;-82
2020/12/08 02:40:12;;;;;;;25.20;16.60;;;;;;;5.43;79.23;99836.16;5317788;27;20083;-84
2020/12/08 02:42:39;;;;;;;27.55;17.52;;;;;;;5.20;80.52;99844.69;5317928;27;20095;-83
2020/12/08 02:45:05;;;;;;;25.50;16.83;;;;;;;5.20;80.63;99847.31;5317982;27;20126;-82
2020/12/08 02:47:32;;;;;;;24.23;16.92;;;;;;;5.58;79.02;99846.69;5317950;27;20080;-84
2020/12/08 02:49:58;;;;;;;24.00;17.17;;;;;;;5.81;77.76;99841.59;5317759;27;20475;-81
2020/12/08 02:52:27;;;;;;;27.55;17.25;;;;;;;5.34;79.32;99838.72;5317663;27;20378;-83
2020/12/08 02:54:54;;;;;;;25.95;16.52;;;;;;;5.49;79.18;99835.34;5317630;27;20087;-82
2020/12/08 02:57:20;;;;;;;26.95;17.42;;;;;;;5.62;78.65;99831.94;5318279;27;20056;-83
2020/12/08 02:59:46;;;;;;;24.83;16.83;;;;;;;5.30;80.01;99839.56;5317884;27;20061;-81
2020/12/08 03:02:14;;;;;;;28.02;17.25;;;;;;;5.58;78.85;99835.38;5317641;27;20084;-84
2020/12/08 03:04:41;;;;;;;25.17;16.65;;;;;;;5.62;79.16;99840.63;5317565;27;20131;-81
2020/12/08 03:07:07;;;;;;;30.42;18.70;;;;;;;5.77;78.14;99844.19;5318044;27;20060;-80
2020/12/08 03:09:33;;;;;;;26.30;16.27;;;;;;;5.48;78.64;99844.91;5317481;27;20084;-79
2020/12/08 03:12:00;;;;;;;28.42;17.42;;;;;;;5.39;78.99;99863.06;5317776;27;20077;-82
2020/12/08 03:14:26;;;;;;;29.45;17.90;;;;;;;5.58;78.34;99867.53;5317884;27;20436;-82
2020/12/08 03:16:56;;;;;;;28.95;17.55;;;;;;;5.23;80.30;99870.78;5317994;27;20108;-82
2020/12/08 03:19:22;;;;;;;29.17;18.98;;;;;;;5.21;80.09;99864.69;5317794;27;20065;-82
2020/12/08 03:21:49;;;;;;;29.95;17.98;;;;;;;5.50;79.30;99858.81;5317537;27;20069;-81
2020/12/08 03:24:15;;;;;;;29.45;17.80;;;;;;;5.32;79.60;99863.87;5319131;26;20068;-83
2020/12/08 03:26:42;;;;;;;29.15;18.90;;;;;;;5.66;78.41;99872.78;5317592;27;20048;-84
2020/12/08 03:29:08;;;;;;;28.33;17.87;;;;;;;5.53;78.77;99866.66;5319150;26;20127;-82
2020/12/08 03:31:34;;;;;;;29.52;17.85;;;;;;;5.68;78.26;99869.34;5317747;27;20077;-83
2020/12/08 03:34:01;;;;;;;28.95;18.30;;;;;;;5.75;77.96;99867.62;5317744;27;20057;-81
2020/12/08 03:36:28;;;;;;;29.10;19.00;;;;;;;5.90;77.48;99862.47;5317707;27;20090;-83
2020/12/08 03:38:54;;;;;;;29.58;16.92;;;;;;;5.37;80.06;99868.25;5317000;27;20064;-83
2020/12/08 03:41:22;;;;;;;31.33;19.08;;;;;;;5.32;79.37;99871.69;5317525;27;20072;-82
2020/12/08 03:43:50;;;;;;;27.08;17.45;;;;;;;5.18;80.52;99872.47;5317536;27;20072;-82
2020/12/08 03:46:18;;;;;;;31.10;18.25;;;;;;;5.26;79.69;99879.47;5317662;27;20049;-81
2020/12/08 03:48:45;;;;;;;27.98;18.45;;;;;;;5.53;78.61;99873.56;5318196;27;20290;-82
2020/12/08 03:51:13;;;;;;;29.35;18.52;;;;;;;5.14;80.41;99875.03;5317233;27;20069;-82
2020/12/08 03:53:40;;;;;;;29.85;17.75;;;;;;;5.49;79.15;99872.69;5317308;27;20057;-82
2020/12/08 03:56:13;;;;;;;32.97;19.02;;;;;;;5.08;79.88;99873.25;5318996;26;20082;-82
2020/12/08 03:58:40;;;;;;;35.55;18.42;;;;;;;5.35;79.32;99866.50;5317528;27;20060;-81
2020/12/08 04:01:13;;;;;;;31.80;18.70;;;;;;;5.23;80.35;99868.19;5317557;27;20136;-82
2020/12/08 04:03:41;;;;;;;28.23;17.20;;;;;;;5.50;79.04;99866.63;5317365;27;20143;-82
2020/12/08 04:06:07;;;;;;;33.97;18.60;;;;;;;5.15;80.01;99867.25;5317563;27;20060;-82
2020/12/08 04:08:34;;;;;;;27.85;17.75;;;;;;;5.54;78.75;99876.19;5320101;26;20397;-82
2020/12/08 04:11:00;;;;;;;32.33;18.58;;;;;;;5.27;79.91;99876.03;5319997;26;20544;-81
2020/12/08 04:13:26;;;;;;;31.35;18.85;;;;;;;5.13;80.06;99876.78;5320162;26;20057;-82
2020/12/08 04:15:53;;;;;;;32.67;18.52;;;;;;;5.07;80.82;99878.47;5320501;26;20056;-84
2020/12/08 04:18:19;;;;;;;34.92;18.55;;;;;;;5.21;80.49;99871.63;5320131;26;20602;-83
2020/12/08 04:20:45;;;;;;;34.75;20.80;;;;;;;5.33;80.00;99874.31;5320061;27;20069;-82
2020/12/08 04:23:13;;;;;;;29.40;16.95;;;;;;;4.92;81.86;99876.59;5318633;27;20049;-81
2020/12/08 04:25:40;;;;;;;31.08;18.70;;;;;;;5.37;79.63;99881.28;5320193;26;20058;-83
2020/12/08 04:28:07;;;;;;;31.83;18.02;;;;;;;5.15;80.17;99876.81;5319978;27;20414;-82
2020/12/08 04:30:38;;;;;;;29.27;19.05;;;;;;;5.05;81.02;99865.41;5319728;26;20065;-82
2020/12/08 04:33:08;;;;;;;29.15;17.25;;;;;;;4.92;81.37;99861.84;5318478;27;20087;-81
2020/12/08 04:35:37;;;;;;;31.55;19.62;;;;;;;5.46;79.43;99868.31;5318202;27;20083;-82
2020/12/08 04:38:04;;;;;;;37.13;21.85;;;;;;;5.37;79.83;99870.87;5318127;27;20335;-81
2020/12/08 04:40:30;;;;;;;30.90;17.90;;;;;;;4.94;81.50;99857.53;5318016;27;20061;-84
2020/12/08 04:42:58;;;;;;;33.85;19.77;;;;;;;5.21;80.58;99856.00;5318464;27;20049;-82
2020/12/08 04:45:27;;;;;;;32.15;18.12;;;;;;;5.01;81.33;99855.84;5318193;27;20054;-82
2020/12/08 04:48:05;;;;;;;34.15;19.58;;;;;;;5.27;80.13;99856.06;5318296;27;20111;-82
2020/12/08 04:50:33;;;;;;;36.42;20.77;;;;;;;5.23;80.46;99860.38;5318686;27;20071;-81
2020/12/08 04:53:04;;;;;;;36.88;20.50;;;;;;;5.44;79.80;99848.31;5317981;27;20466;-82
2020/12/08 04:55:31;;;;;;;35.35;21.25;;;;;;;5.11;81.08;99855.06;5318500;27;20045;-82
2020/12/08 04:57:58;;;;;;;39.88;19.87;;;;;;;5.68;78.30;99856.31;5318205;27;20128;-82
2020/12/08 05:00:24;;;;;;;34.72;19.85;;;;;;;5.30;79.72;99842.19;5318164;27;20065;-81
2020/12/08 05:02:56;;;;;;;32.00;19.00;;;;;;;5.10;80.62;99853.31;5318262;27;20430;-81
2020/12/08 05:05:23;;;;;;;31.30;19.25;;;;;;;5.28;79.93;99854.31;5320139;26;20106;-81
2020/12/08 05:07:49;;;;;;;30.40;19.10;;;;;;;4.81;81.56;99865.22;5319958;26;20715;-83
2020/12/08 05:10:27;;;;;;;33.17;18.48;;;;;;;5.09;80.34;99871.53;5319895;26;20074;-82
2020/12/08 05:12:55;;;;;;;32.10;19.10;;;;;;;4.96;80.56;99867.94;5319889;26;20106;-84
2020/12/08 05:15:21;;;;;;;32.63;20.83;;;;;;;4.85;80.90;99874.78;5320070;26;20053;-83
2020/12/08 05:17:47;;;;;;;34.90;21.35;;;;;;;4.74;82.28;99869.50;5319947;26;20072;-81
2020/12/08 05:20:17;;;;;;;37.33;21.33;;;;;;;4.80;81.43;99864.34;5320220;27;20069;-83
2020/12/08 05:22:55;;;;;;;33.50;19.92;;;;;;;5.20;80.05;99869.88;5319781;26;20152;-82
2020/12/08 05:25:25;;;;;;;29.15;18.90;;;;;;;4.74;81.69;99872.13;5318082;27;20060;-84
2020/12/08 05:27:56;;;;;;;29.40;17.62;;;;;;;5.19;80.35;99871.63;5317920;27;20148;-81
2020/12/08 05:30:25;;;;;;;37.00;19.50;;;;;;;4.99;80.54;99867.97;5317998;27;20080;-83
2020/12/08 05:32:51;;;;;;;29.10;17.87;;;;;;;4.95;81.34;99868.81;5317934;27;20186;-82
2020/12/08 05:35:21;;;;;;;31.08;19.12;;;;;;;4.93;80.86;99874.00;5318104;27;20065;-82
2020/12/08 05:37:52;;;;;;;34.20;20.12;;;;;;;5.20;79.22;99877.69;5317933;27;20121;-82
2020/12/08 05:40:24;;;;;;;37.03;20.08;;;;;;;5.15;79.23;99875.06;5317773;27;20100;-81
2020/12/08 05:42:52;;;;;;;37.35;19.27;;;;;;;4.76;81.06;99871.28;5318036;27;20059;-82
2020/12/08 05:45:24;;;;;;;37.58;21.25;;;;;;;4.53;82.07;99875.38;5318119;27;20044;-82
2020/12/08 05:47:52;;;;;;;36.42;19.00;;;;;;;4.66;81.62;99882.44;5318419;27;20099;-82
2020/12/08 05:50:21;;;;;;;32.50;17.90;;;;;;;5.01;80.02;99880.16;5317856;27;20082;-81
2020/12/08 05:52:53;;;;;;;33.00;17.65;;;;;;;4.55;81.69;99894.47;5317762;27;20376;-82
2020/12/08 05:55:21;;;;;;;28.58;16.65;;;;;;;4.76;80.69;99891.19;5318185;27;20079;-82
2020/12/08 05:57:49;;;;;;;;;;;;;;;4.71;81.18;99891.16;5318730;27;20110;-82
2020/12/08 06:00:27;;;;;;;30.42;18.05;;;;;;;4.31;82.86;99890.72;5318636;27;19967;-82
2020/12/08 06:03:07;;;;;;;33.65;18.67;;;;;;;4.37;82.75;99899.47;5317996;27;20417;-82
2020/12/08 06:05:34;;;;;;;39.00;22.90;;;;;;;4.67;81.41;99905.00;5318141;27;20071;-82
2020/12/08 06:08:19;;;;;;;42.45;22.70;;;;;;;4.42;81.95;99906.47;5318009;27;20090;-82
2020/12/08 06:10:48;;;;;;;50.92;30.83;;;;;;;4.33;82.92;99902.03;5318149;27;20103;-82
2020/12/08 06:13:31;;;;;;;32.80;19.52;;;;;;;4.64;81.49;99894.56;5317782;27;20056;-82
2020/12/08 06:15:59;;;;;;;30.98;19.20;;;;;;;4.62;81.40;99901.50;5317953;27;20478;-82
2020/12/08 06:18:34;;;;;;;36.78;20.50;;;;;;;4.94;80.32;99900.91;5318657;27;20061;-83
2020/12/08 06:21:22;;;;;;;33.95;19.90;;;;;;;4.89;80.73;99905.22;5317442;27;20076;-81
2020/12/08 06:23:51;;;;;;;40.92;20.25;;;;;;;4.57;81.91;99907.50;5318290;27;20067;-81
2020/12/08 06:26:25;;;;;;;36.22;20.35;;;;;;;4.93;80.45;99902.63;5317986;27;20124;-81
2020/12/08 06:28:52;;;;;;;34.33;19.87;;;;;;;4.71;81.36;99917.19;5319128;26;20091;-81
2020/12/08 06:31:20;;;;;;;32.10;20.50;;;;;;;4.72;81.89;99910.25;5318256;26;20450;-83
2020/12/08 06:33:56;;;;;;;29.52;19.00;;;;;;;4.70;81.46;99917.16;5317872;26;20488;-82
2020/12/08 06:36:24;;;;;;;34.42;19.50;;;;;;;4.31;83.69;99924.53;5316705;27;20069;-80
2020/12/08 06:38:59;;;;;;;35.72;21.95;;;;;;;4.69;82.38;99929.31;5315234;27;20072;-83
2020/12/08 06:44:30;;;;;;;29.12;18.45;;;;;;;4.81;81.38;99932.91;5302768;26;20516;-83
2020/12/08 06:46:59;;;;;;;34.42;19.42;;;;;;;4.40;83.24;99928.12;5317085;27;20063;-84
2020/12/08 06:49:27;;;;;;;37.13;20.62;;;;;;;4.35;83.47;99930.66;5317485;27;20120;-81
2020/12/08 06:51:55;;;;;;;35.30;20.73;;;;;;;4.27;83.88;99929.72;5316523;27;20060;-84
2020/12/08 06:58:06;;;;;;;36.65;19.87;;;;;;;4.95;81.56;99926.09;4941595;27;20068;-85
2020/12/08 07:00:32;;;;;;;29.92;18.20;;;;;;;4.65;82.69;99927.53;5276416;27;20045;-83
2020/12/08 07:03:02;;;;;;;35.22;20.62;;;;;;;4.43;83.07;99936.81;5295993;27;20123;-81
2020/12/08 07:05:30;;;;;;;35.50;21.30;;;;;;;4.98;81.01;99936.53;5295871;27;20057;-82
2020/12/08 07:08:05;;;;;;;37.35;21.45;;;;;;;4.65;82.11;99942.28;5304277;26;20427;-82
2020/12/08 07:10:39;;;;;;;46.33;22.55;;;;;;;4.48;82.70;99940.34;5311804;27;20066;-81
2020/12/08 07:13:14;;;;;;;37.95;20.80;;;;;;;4.74;81.84;99937.19;5314193;27;20095;-81
2020/12/08 07:15:42;;;;;;;41.22;22.17;;;;;;;4.68;81.71;99951.00;5312336;27;20116;-81
2020/12/08 07:18:12;;;;;;;36.17;19.60;;;;;;;4.35;83.02;99950.59;5314014;27;20057;-80
2020/12/08 07:20:53;;;;;;;37.22;20.75;;;;;;;4.61;81.93;99959.56;5295056;26;20076;-83
2020/12/08 07:23:20;;;;;;;44.13;20.92;;;;;;;4.47;82.91;99948.13;5314946;27;20057;-81
2020/12/08 07:28:15;;;;;;;49.47;20.77;;;;;;;4.25;83.78;99950.47;5296509;27;20904;-84
2020/12/08 07:30:49;;;;;;;42.75;23.60;;;;;;;4.17;83.76;99954.69;5293746;27;20089;-82
2020/12/08 07:33:18;;;;;;;65.37;34.30;;;;;;;4.28;83.79;99952.25;5294273;27;20138;-83
2020/12/08 07:35:45;;;;;;;57.38;33.60;;;;;;;4.33;83.68;99954.06;5294076;27;20076;-83
2020/12/08 07:38:12;;;;;;;48.92;26.58;;;;;;;4.65;82.68;99957.91;5294655;27;20099;-83
2020/12/08 07:40:41;;;;;;;46.70;26.45;;;;;;;4.74;82.09;99961.47;5300171;26;20057;-81
2020/12/08 07:43:08;;;;;;;44.85;25.25;;;;;;;4.50;82.87;99963.78;5315553;26;20494;-81
2020/12/08 07:45:42;;;;;;;44.47;24.15;;;;;;;4.38;82.91;99961.03;5316758;27;20060;-83
2020/12/08 07:48:17;;;;;;;33.03;17.77;;;;;;;4.37;83.46;99960.16;5317613;27;20067;-84
2020/12/08 07:50:44;;;;;;;33.33;19.52;;;;;;;3.77;84.53;99945.50;5318386;26;20053;-83
2020/12/08 07:53:11;;;;;;;31.00;16.90;;;;;;;3.67;86.12;99951.41;5336229;26;20091;-80
2020/12/08 08:04:57;;;;;;;28.92;15.88;;;;;;;3.39;86.76;99961.38;5313547;26;20078;-82
2020/12/08 08:07:56;;;;;;;33.30;17.37;;;;;;;3.79;85.22;99956.78;5318096;27;20182;-83
2020/12/08 08:10:23;;;;;;;27.20;16.75;;;;;;;3.41;86.32;99963.16;5317885;27;20122;-83
2020/12/08 08:12:59;;;;;;;31.23;16.58;;;;;;;3.55;85.70;99965.94;5317968;27;20052;-82
2020/12/08 08:15:26;;;;;;;27.52;15.88;;;;;;;3.81;84.25;99981.06;5318018;27;20094;-81
2020/12/08 08:17:52;;;;;;;26.15;14.02;;;;;;;3.76;85.08;99977.53;5317800;27;20438;-81
2020/12/08 08:20:19;;;;;;;26.35;14.27;;;;;;;3.84;84.50;99984.59;5318796;26;20068;-81
2020/12/08 08:22:46;;;;;;;25.15;13.65;;;;;;;3.67;85.60;99983.44;5319373;27;20052;-81
2020/12/08 08:25:13;;;;;;;26.85;16.52;;;;;;;3.77;85.30;99989.69;5317911;27;20061;-82
2020/12/08 08:27:40;;;;;;;29.52;14.98;;;;;;;3.57;85.69;99987.66;5319391;26;20130;-83
2020/12/08 08:30:06;;;;;;;32.33;18.05;;;;;;;3.56;86.05;99991.09;5319528;26;20052;-81
2020/12/08 08:35:22;;;;;;;35.15;18.87;;;;;;;3.54;86.48;99986.72;5297800;27;20072;-80
2020/12/08 08:37:49;;;;;;;38.53;20.20;;;;;;;3.85;85.33;99986.34;5290086;26;20110;-82
2020/12/08 08:40:15;;;;;;;43.30;22.45;;;;;;;3.82;86.20;99998.41;5317715;27;20112;-81
2020/12/08 08:42:42;;;;;;;37.42;19.70;;;;;;;3.55;86.34;100002.31;5317749;27;20083;-80
2020/12/08 08:45:09;;;;;;;49.67;21.98;;;;;;;3.65;86.35;100003.37;5317358;27;20123;-80
2020/12/08 08:47:35;;;;;;;44.10;21.98;;;;;;;3.60;86.38;100007.59;5317010;27;20057;-81
2020/12/08 08:50:04;;;;;;;45.90;22.10;;;;;;;4.03;84.59;100013.44;5317741;27;20053;-81
2020/12/08 08:52:51;;;;;;;38.63;18.90;;;;;;;4.25;84.21;99994.69;5316260;27;20056;-81
2020/12/08 08:55:17;;;;;;;39.13;22.65;;;;;;;3.76;85.63;100000.91;5266473;26;20065;-82
2020/12/08 09:01:04;;;;;;;40.88;21.87;;;;;;;4.19;85.17;100014.53;5187250;27;20073;-83
2020/12/08 09:03:30;;;;;;;44.50;22.40;;;;;;;4.12;84.52;100015.28;5274380;27;20074;-81
2020/12/08 09:05:57;;;;;;;44.38;23.65;;;;;;;4.28;84.47;100012.06;5274054;27;20071;-80
2020/12/08 09:08:24;;;;;;;38.92;21.77;;;;;;;4.25;84.67;100001.62;5185585;27;20120;-81
2020/12/08 09:10:52;;;;;;;39.47;19.65;;;;;;;4.42;83.55;100001.84;5185375;27;20539;-81
2020/12/08 09:13:18;;;;;;;42.75;21.90;;;;;;;3.94;85.41;99992.50;5255474;27;20205;-82
2020/12/08 09:15:54;;;;;;;42.75;23.10;;;;;;;4.25;83.91;99999.91;5184468;27;20059;-81
2020/12/08 09:18:21;;;;;;;41.25;23.25;;;;;;;3.99;86.01;99996.06;5277448;27;20109;-83
2020/12/08 09:20:48;;;;;;;43.42;25.05;;;;;;;4.50;83.57;99997.59;5301770;27;20069;-81
2020/12/08 09:23:15;;;;;;;42.53;21.15;;;;;;;4.30;83.89;99989.56;5302570;27;20073;-83
2020/12/08 09:25:42;;;;;;;46.45;24.40;;;;;;;4.33;83.09;99992.19;5318177;26;20069;-80
2020/12/08 09:28:08;;;;;;;40.05;21.92;;;;;;;4.53;83.25;99990.72;5321482;26;20056;-81
2020/12/08 09:30:50;;;;;;;44.72;22.27;;;;;;;4.20;84.29;100005.88;5340704;26;20891;-81
2020/12/08 09:33:17;;;;;;;44.40;24.80;;;;;;;4.07;84.94;99997.03;5340949;26;20106;-80
2020/12/08 09:35:43;;;;;;;50.45;23.85;;;;;;;4.24;84.66;99992.97;5340415;26;20060;-82
2020/12/08 09:38:10;;;;;;;52.58;24.17;;;;;;;4.46;83.92;99993.22;5321177;26;20414;-81
2020/12/08 09:40:41;;;;;;;45.47;24.17;;;;;;;4.25;84.00;99994.69;5340780;26;20410;-82
2020/12/08 09:43:08;;;;;;;41.15;23.45;;;;;;;4.18;84.13;100003.28;5341547;26;20775;-81
2020/12/08 09:45:36;;;;;;;51.55;23.60;;;;;;;4.02;84.16;99996.97;5300805;26;20084;-81
2020/12/08 09:54:56;;;;;;;42.40;21.00;;;;;;;4.17;84.20;99978.09;5206107;27;20389;-81
2020/12/08 09:57:24;;;;;;;43.42;24.65;;;;;;;4.28;83.70;99981.72;5189812;27;20077;-82
2020/12/08 09:59:52;;;;;;;39.97;22.73;;;;;;;4.04;84.87;99963.22;5278485;27;20464;-80
2020/12/08 10:02:19;;;;;;;40.40;22.45;;;;;;;3.79;85.62;99962.84;5317524;27;20062;-81
2020/12/08 10:04:46;;;;;;;41.53;22.20;;;;;;;3.71;85.81;99958.41;5317730;27;20064;-81
2020/12/08 10:07:15;;;;;;;40.15;20.73;;;;;;;3.75;86.19;99955.87;5296905;27;20707;-81
2020/12/08 10:10:37;;;;;;;39.60;23.80;;;;;;;3.64;86.71;99953.09;5316648;27;20181;-81
2020/12/08 10:13:05;;;;;;;38.28;22.35;;;;;;;3.54;86.96;99933.03;5316775;27;20068;-82
2020/12/08 10:15:33;;;;;;;42.40;23.23;;;;;;;3.73;86.39;99949.75;5297375;27;20065;-80
2020/12/08 10:17:59;;;;;;;33.95;21.12;;;;;;;3.89;85.47;99948.28;5296473;27;20079;-81
2020/12/08 10:20:26;;;;;;;38.40;21.27;;;;;;;3.90;86.28;99951.75;5297231;27;20083;-81
2020/12/08 10:22:52;;;;;;;42.72;23.50;;;;;;;3.85;86.00;99936.97;5299336;27;20071;-81
2020/12/08 10:25:19;;;;;;;54.90;26.58;;;;;;;4.25;84.58;99953.09;5299409;27;20434;-80
2020/12/08 10:27:45;;;;;;;33.80;21.27;;;;;;;4.00;84.96;99951.00;5299030;27;20065;-82
2020/12/08 10:30:12;;;;;;;40.22;21.90;;;;;;;3.96;85.57;99950.09;5309526;26;20106;-82
2020/12/08 10:32:39;;;;;;;40.85;23.52;;;;;;;4.36;84.32;99935.03;5320675;26;20066;-80
2020/12/08 10:35:07;;;;;;;38.65;19.98;;;;;;;4.04;85.83;99935.47;5339653;26;20065;-81
2020/12/08 10:37:54;;;;;;;35.35;20.73;;;;;;;4.31;84.43;99941.88;5321171;26;20120;-82
2020/12/08 10:40:21;;;;;;;34.45;22.42;;;;;;;4.03;85.54;99945.84;5255933;27;20065;-79
2020/12/08 10:42:47;;;;;;;37.15;21.98;;;;;;;3.69;86.76;99929.78;5269537;26;20078;-82
2020/12/08 10:45:32;;;;;;;37.88;21.08;;;;;;;3.93;86.13;99924.06;5317199;26;20499;-82
2020/12/08 10:47:59;;;;;;;31.40;18.55;;;;;;;3.99;86.36;99925.87;5280026;27;20116;-80
2020/12/08 10:50:38;;;;;;;32.78;18.75;;;;;;;4.55;82.82;99931.75;5280598;27;20082;-82
2020/12/08 10:53:05;;;;;;;31.65;19.27;;;;;;;4.47;83.25;99922.13;5279786;27;20092;-81
2020/12/08 10:56:24;;;;;;;40.67;21.92;;;;;;;4.31;84.28;99908.94;5208662;27;20078;-83
2020/12/08 10:58:52;;;;;;;34.05;19.20;;;;;;;4.38;84.81;99909.00;5208533;27;20062;-82
2020/12/08 11:01:24;;;;;;;30.77;18.87;;;;;;;4.09;85.40;99918.22;5208771;27;20076;-80
2020/12/08 11:04:09;;;;;;;30.27;17.80;;;;;;;4.11;84.62;99910.44;5298292;27;20082;-82
2020/12/08 11:06:57;;;;;;;30.60;17.60;;;;;;;4.22;84.94;99913.16;5208627;27;20077;-81
2020/12/08 11:09:25;;;;;;;32.33;20.92;;;;;;;4.44;84.65;99896.06;5208685;27;20116;-80
2020/12/08 11:11:51;;;;;;;28.92;17.10;;;;;;;3.79;87.18;99892.69;5282062;26;20083;-80
2020/12/08 11:14:18;;;;;;;23.12;14.18;;;;;;;4.27;84.96;99893.31;5339783;26;20083;-79
2020/12/08 11:20:14;;;;;;;29.50;17.58;;;;;;;3.96;86.27;99907.63;5341542;26;20110;-82
2020/12/08 11:26:23;;;;;;;29.67;17.77;;;;;;;4.16;85.35;99890.56;5319728;26;20117;-81
2020/12/08 11:28:50;;;;;;;28.33;17.90;;;;;;;4.22;84.15;99889.75;5322162;26;20056;-81
2020/12/08 11:31:56;;;;;;;32.63;17.55;;;;;;;3.98;86.01;99887.75;5322042;26;20063;-81
2020/12/08 11:34:51;;;;;;;25.15;16.02;;;;;;;4.29;85.07;99886.37;5233201;27;20077;-82
2020/12/08 11:37:18;;;;;;;27.85;16.90;;;;;;;4.24;84.24;99885.47;5250942;27;20112;-81
2020/12/08 11:39:45;;;;;;;26.75;18.15;;;;;;;4.21;84.41;99888.91;5293639;26;20117;-80
2020/12/08 11:42:14;;;;;;;32.15;21.20;;;;;;;3.80;86.44;99881.47;5322249;26;20064;-81
2020/12/08 11:44:46;;;;;;;32.85;20.12;;;;;;;3.80;86.88;99878.84;5319035;26;20082;-80
2020/12/08 11:47:14;;;;;;;28.25;18.73;;;;;;;3.99;85.40;99886.87;5300324;27;20103;-81
2020/12/08 11:49:40;;;;;;;35.10;21.00;;;;;;;4.16;85.31;99885.38;5299936;27;20092;-80
2020/12/08 11:52:10;;;;;;;28.58;18.12;;;;;;;3.76;86.55;99899.56;5299774;27;20072;-80
2020/12/08 11:54:37;;;;;;;31.23;20.55;;;;;;;4.01;85.37;99895.59;5300118;27;20068;-80
2020/12/08 11:57:05;;;;;;;32.13;18.90;;;;;;;4.09;85.10;99901.75;5300241;27;20090;-80
2020/12/08 11:59:32;;;;;;;35.28;20.05;;;;;;;4.35;84.61;99899.44;5315276;26;20081;-80
2020/12/08 12:02:27;;;;;;;43.92;20.58;;;;;;;4.08;85.15;99897.38;5314630;26;20078;-80
2020/12/08 12:04:54;;;;;;;33.88;21.23;;;;;;;3.92;86.19;99911.06;5321876;26;20354;-80
2020/12/08 12:07:21;;;;;;;33.30;21.85;;;;;;;4.27;85.13;99899.38;5322339;26;20112;-81
2020/12/08 12:09:48;;;;;;;46.63;21.92;;;;;;;4.19;85.06;99895.81;5342160;26;20076;-81
2020/12/08 12:12:14;;;;;;;28.83;18.42;;;;;;;4.34;83.72;99874.28;5342116;26;20057;-81